sensor_id;sensor_type;location;lat;lon;timestamp;temperature;humidity
3866;DHT22;1948;53.250;10.412;2023-07-31T00:01:04;15.10;99.90
3866;DHT22;1948;53.250;10.412;2023-07-31T00:03:31;15.10;99.90
3866;DHT22;1948;53.250;10.412;2023-07-31T00:06:03;15.10;99.90
3866;DHT22;1948;53.250;10.412;2023-07-31T00:08:29;15.10;99.90
3866;DHT22;1948;53.250;10.412;2023-07-31T00:10:59;15.10;99.90
3866;DHT22;1948;53.250;10.412;2023-07-31T00:13:26;15.00;99.90
3866;DHT22;1948;53.250;10.412;2023-07-31T00:15:55;15.00;99.90
3866;DHT22;1948;53.250;10.412;2023-07-31T00:18:26;15.00;99.90
3866;DHT22;1948;53.250;10.412;2023-07-31T00:20:52;15.00;99.90
3866;DHT22;1948;53.250;10.412;2023-07-31T00:23:22;15.10;99.90
3866;DHT22;1948;53.250;10.412;2023-07-31T00:25:49;15.10;99.90
3866;DHT22;1948;53.250;10.412;2023-07-31T00:28:16;15.20;99.90
3866;DHT22;1948;53.250;10.412;2023-07-31T00:30:43;15.20;99.90
3866;DHT22;1948;53.250;10.412;2023-07-31T00:33:10;15.30;99.90
3866;DHT22;1948;53.250;10.412;2023-07-31T00:35:37;15.30;99.90
3866;DHT22;1948;53.250;10.412;2023-07-31T00:38:06;15.30;99.90
3866;DHT22;1948;53.250;10.412;2023-07-31T00:40:36;15.30;99.90
3866;DHT22;1948;53.250;10.412;2023-07-31T00:43:04;15.40;99.90
3866;DHT22;1948;53.250;10.412;2023-07-31T00:45:33;15.40;99.90
3866;DHT22;1948;53.250;10.412;2023-07-31T00:48:01;15.40;99.90
3866;DHT22;1948;53.250;10.412;2023-07-31T00:50:33;15.40;99.90
3866;DHT22;1948;53.250;10.412;2023-07-31T00:53:01;15.50;99.90
3866;DHT22;1948;53.250;10.412;2023-07-31T00:55:29;15.50;99.90
3866;DHT22;1948;53.250;10.412;2023-07-31T00:57:56;15.50;99.90
3866;DHT22;1948;53.250;10.412;2023-07-31T01:00:26;15.60;99.90
3866;DHT22;1948;53.250;10.412;2023-07-31T01:02:53;15.60;99.90
3866;DHT22;1948;53.250;10.412;2023-07-31T01:06:13;15.70;99.90
3866;DHT22;1948;53.250;10.412;2023-07-31T01:08:20;15.70;99.90
3866;DHT22;1948;53.250;10.412;2023-07-31T01:11:27;15.70;99.90
3866;DHT22;1948;53.250;10.412;2023-07-31T01:13:56;15.80;99.90
3866;DHT22;1948;53.250;10.412;2023-07-31T01:16:24;15.80;99.90
3866;DHT22;1948;53.250;10.412;2023-07-31T01:18:56;15.90;99.90
3866;DHT22;1948;53.250;10.412;2023-07-31T01:21:47;15.90;99.90
3866;DHT22;1948;53.250;10.412;2023-07-31T01:27:03;16.00;99.90
3866;DHT22;1948;53.250;10.412;2023-07-31T01:32:40;16.00;99.90
3866;DHT22;1948;53.250;10.412;2023-07-31T01:35:08;16.00;99.90
3866;DHT22;1948;53.250;10.412;2023-07-31T01:37:35;15.90;99.90
3866;DHT22;1948;53.250;10.412;2023-07-31T01:40:04;15.90;99.90
3866;DHT22;1948;53.250;10.412;2023-07-31T01:42:34;15.90;99.90
3866;DHT22;1948;53.250;10.412;2023-07-31T01:45:01;15.90;99.90
3866;DHT22;1948;53.250;10.412;2023-07-31T01:47:28;15.90;99.90
3866;DHT22;1948;53.250;10.412;2023-07-31T01:49:55;16.00;99.90
3866;DHT22;1948;53.250;10.412;2023-07-31T01:52:25;16.00;99.90
3866;DHT22;1948;53.250;10.412;2023-07-31T01:54:52;16.00;99.90
3866;DHT22;1948;53.250;10.412;2023-07-31T01:57:19;16.00;99.90
3866;DHT22;1948;53.250;10.412;2023-07-31T01:59:46;15.90;99.90
3866;DHT22;1948;53.250;10.412;2023-07-31T02:02:16;15.90;99.90
3866;DHT22;1948;53.250;10.412;2023-07-31T02:04:43;15.90;99.90
3866;DHT22;1948;53.250;10.412;2023-07-31T02:07:10;16.00;99.90
3866;DHT22;1948;53.250;10.412;2023-07-31T02:09:37;15.90;99.90
3866;DHT22;1948;53.250;10.412;2023-07-31T02:12:04;15.90;99.90
3866;DHT22;1948;53.250;10.412;2023-07-31T02:14:31;15.90;99.90
3866;DHT22;1948;53.250;10.412;2023-07-31T02:17:01;15.90;99.90
3866;DHT22;1948;53.250;10.412;2023-07-31T02:19:31;15.90;99.90
3866;DHT22;1948;53.250;10.412;2023-07-31T02:21:58;15.90;99.90
3866;DHT22;1948;53.250;10.412;2023-07-31T02:24:25;15.90;99.90
3866;DHT22;1948;53.250;10.412;2023-07-31T02:26:51;15.80;99.90
3866;DHT22;1948;53.250;10.412;2023-07-31T02:29:19;15.80;99.90
3866;DHT22;1948;53.250;10.412;2023-07-31T02:31:48;15.80;99.90
3866;DHT22;1948;53.250;10.412;2023-07-31T02:34:15;15.80;99.90
3866;DHT22;1948;53.250;10.412;2023-07-31T02:36:42;15.70;99.90
3866;DHT22;1948;53.250;10.412;2023-07-31T02:39:14;15.70;99.90
3866;DHT22;1948;53.250;10.412;2023-07-31T02:41:46;15.70;99.90
3866;DHT22;1948;53.250;10.412;2023-07-31T02:44:13;15.80;99.90
3866;DHT22;1948;53.250;10.412;2023-07-31T02:46:41;15.70;99.90
3866;DHT22;1948;53.250;10.412;2023-07-31T02:49:10;15.70;99.90
3866;DHT22;1948;53.250;10.412;2023-07-31T02:51:40;15.80;99.90
3866;DHT22;1948;53.250;10.412;2023-07-31T02:54:09;15.80;99.90
3866;DHT22;1948;53.250;10.412;2023-07-31T02:56:36;15.80;99.90
3866;DHT22;1948;53.250;10.412;2023-07-31T02:59:04;15.80;99.90
3866;DHT22;1948;53.250;10.412;2023-07-31T03:01:34;15.80;99.90
3866;DHT22;1948;53.250;10.412;2023-07-31T03:04:01;15.80;99.90
3866;DHT22;1948;53.250;10.412;2023-07-31T03:06:30;15.70;99.90
3866;DHT22;1948;53.250;10.412;2023-07-31T03:09:02;15.80;99.90
3866;DHT22;1948;53.250;10.412;2023-07-31T03:11:29;15.70;99.90
3866;DHT22;1948;53.250;10.412;2023-07-31T03:13:58;15.70;99.90
3866;DHT22;1948;53.250;10.412;2023-07-31T03:16:25;15.80;99.90
3866;DHT22;1948;53.250;10.412;2023-07-31T03:18:52;15.80;99.90
3866;DHT22;1948;53.250;10.412;2023-07-31T03:21:19;15.80;99.90
3866;DHT22;1948;53.250;10.412;2023-07-31T03:23:49;15.90;99.90
3866;DHT22;1948;53.250;10.412;2023-07-31T03:26:16;15.90;99.90
3866;DHT22;1948;53.250;10.412;2023-07-31T03:28:46;15.90;99.90
3866;DHT22;1948;53.250;10.412;2023-07-31T03:31:12;15.90;99.90
3866;DHT22;1948;53.250;10.412;2023-07-31T03:33:42;15.90;99.90
3866;DHT22;1948;53.250;10.412;2023-07-31T03:36:09;15.90;99.90
3866;DHT22;1948;53.250;10.412;2023-07-31T03:38:36;15.90;99.90
3866;DHT22;1948;53.250;10.412;2023-07-31T03:41:03;16.00;99.90
3866;DHT22;1948;53.250;10.412;2023-07-31T03:43:33;15.90;99.90
3866;DHT22;1948;53.250;10.412;2023-07-31T03:46:03;15.90;99.90
3866;DHT22;1948;53.250;10.412;2023-07-31T03:48:30;15.90;99.90
3866;DHT22;1948;53.250;10.412;2023-07-31T03:50:57;15.90;99.90
3866;DHT22;1948;53.250;10.412;2023-07-31T03:53:24;16.00;99.90
3866;DHT22;1948;53.250;10.412;2023-07-31T03:55:51;16.00;99.90
3866;DHT22;1948;53.250;10.412;2023-07-31T03:58:18;16.00;99.90
3866;DHT22;1948;53.250;10.412;2023-07-31T04:00:45;16.00;99.90
3866;DHT22;1948;53.250;10.412;2023-07-31T04:03:15;16.00;99.90
3866;DHT22;1948;53.250;10.412;2023-07-31T04:05:42;16.00;99.90
3866;DHT22;1948;53.250;10.412;2023-07-31T04:08:09;16.00;99.90
3866;DHT22;1948;53.250;10.412;2023-07-31T04:10:36;16.00;99.90
3866;DHT22;1948;53.250;10.412;2023-07-31T04:13:03;16.10;99.90
3866;DHT22;1948;53.250;10.412;2023-07-31T04:15:30;16.10;99.90
3866;DHT22;1948;53.250;10.412;2023-07-31T04:17:57;16.10;99.90
3866;DHT22;1948;53.250;10.412;2023-07-31T04:20:24;16.10;99.90
3866;DHT22;1948;53.250;10.412;2023-07-31T04:22:53;16.00;99.90
3866;DHT22;1948;53.250;10.412;2023-07-31T04:25:23;16.00;99.90
3866;DHT22;1948;53.250;10.412;2023-07-31T04:27:52;15.90;99.90
3866;DHT22;1948;53.250;10.412;2023-07-31T04:30:19;16.00;99.90
3866;DHT22;1948;53.250;10.412;2023-07-31T04:32:46;16.10;99.90
3866;DHT22;1948;53.250;10.412;2023-07-31T04:35:13;16.10;99.90
3866;DHT22;1948;53.250;10.412;2023-07-31T04:37:40;16.20;99.90
3866;DHT22;1948;53.250;10.412;2023-07-31T04:40:08;16.20;99.90
3866;DHT22;1948;53.250;10.412;2023-07-31T04:42:35;16.20;99.90
3866;DHT22;1948;53.250;10.412;2023-07-31T04:45:04;16.20;99.90
3866;DHT22;1948;53.250;10.412;2023-07-31T04:47:32;16.30;99.90
3866;DHT22;1948;53.250;10.412;2023-07-31T04:50:02;16.20;99.90
3866;DHT22;1948;53.250;10.412;2023-07-31T04:52:29;16.20;99.90
3866;DHT22;1948;53.250;10.412;2023-07-31T04:54:56;16.20;99.90
3866;DHT22;1948;53.250;10.412;2023-07-31T04:57:23;16.20;99.90
3866;DHT22;1948;53.250;10.412;2023-07-31T04:59:52;16.20;99.90
3866;DHT22;1948;53.250;10.412;2023-07-31T05:02:19;16.20;99.90
3866;DHT22;1948;53.250;10.412;2023-07-31T05:04:46;16.10;99.90
3866;DHT22;1948;53.250;10.412;2023-07-31T05:07:15;16.10;99.90
3866;DHT22;1948;53.250;10.412;2023-07-31T05:09:43;16.20;99.90
3866;DHT22;1948;53.250;10.412;2023-07-31T05:12:10;16.20;99.90
3866;DHT22;1948;53.250;10.412;2023-07-31T05:14:40;16.20;99.90
3866;DHT22;1948;53.250;10.412;2023-07-31T05:17:07;16.20;99.90
3866;DHT22;1948;53.250;10.412;2023-07-31T05:19:34;16.10;99.90
3866;DHT22;1948;53.250;10.412;2023-07-31T05:22:01;16.10;99.90
3866;DHT22;1948;53.250;10.412;2023-07-31T05:24:28;16.20;99.90
3866;DHT22;1948;53.250;10.412;2023-07-31T05:26:58;16.20;99.90
3866;DHT22;1948;53.250;10.412;2023-07-31T05:29:30;16.30;99.90
3866;DHT22;1948;53.250;10.412;2023-07-31T05:31:57;16.30;99.90
3866;DHT22;1948;53.250;10.412;2023-07-31T05:34:24;16.40;99.90
3866;DHT22;1948;53.250;10.412;2023-07-31T05:36:53;16.50;99.90
3866;DHT22;1948;53.250;10.412;2023-07-31T05:39:23;16.50;99.90
3866;DHT22;1948;53.250;10.412;2023-07-31T05:41:53;16.40;99.90
3866;DHT22;1948;53.250;10.412;2023-07-31T05:44:20;16.50;99.90
3866;DHT22;1948;53.250;10.412;2023-07-31T05:46:47;16.60;99.90
3866;DHT22;1948;53.250;10.412;2023-07-31T05:49:14;16.60;99.90
3866;DHT22;1948;53.250;10.412;2023-07-31T05:51:43;16.60;99.90
3866;DHT22;1948;53.250;10.412;2023-07-31T05:54:10;16.70;99.90
3866;DHT22;1948;53.250;10.412;2023-07-31T05:56:39;16.80;99.90
3866;DHT22;1948;53.250;10.412;2023-07-31T05:59:09;16.80;99.90
3866;DHT22;1948;53.250;10.412;2023-07-31T06:01:38;16.80;99.90
3866;DHT22;1948;53.250;10.412;2023-07-31T06:04:05;16.80;99.90
3866;DHT22;1948;53.250;10.412;2023-07-31T06:06:32;16.80;99.90
3866;DHT22;1948;53.250;10.412;2023-07-31T06:08:59;16.90;99.90
3866;DHT22;1948;53.250;10.412;2023-07-31T06:11:26;16.90;99.90
3866;DHT22;1948;53.250;10.412;2023-07-31T06:13:55;17.00;99.90
3866;DHT22;1948;53.250;10.412;2023-07-31T06:16:22;17.10;99.90
3866;DHT22;1948;53.250;10.412;2023-07-31T06:18:53;17.10;99.90
3866;DHT22;1948;53.250;10.412;2023-07-31T06:21:19;17.20;99.90
3866;DHT22;1948;53.250;10.412;2023-07-31T06:23:46;17.20;99.90
3866;DHT22;1948;53.250;10.412;2023-07-31T06:26:14;17.30;99.90
3866;DHT22;1948;53.250;10.412;2023-07-31T06:28:44;17.30;99.90
3866;DHT22;1948;53.250;10.412;2023-07-31T06:31:11;17.20;99.90
3866;DHT22;1948;53.250;10.412;2023-07-31T06:33:39;17.30;99.90
3866;DHT22;1948;53.250;10.412;2023-07-31T06:36:06;17.20;99.90
3866;DHT22;1948;53.250;10.412;2023-07-31T06:38:33;17.20;99.90
3866;DHT22;1948;53.250;10.412;2023-07-31T06:41:03;17.20;99.90
3866;DHT22;1948;53.250;10.412;2023-07-31T06:43:30;17.30;99.90
3866;DHT22;1948;53.250;10.412;2023-07-31T06:46:05;17.30;99.90
3866;DHT22;1948;53.250;10.412;2023-07-31T06:48:33;17.30;99.90
3866;DHT22;1948;53.250;10.412;2023-07-31T06:51:03;17.30;99.90
3866;DHT22;1948;53.250;10.412;2023-07-31T06:53:30;17.40;99.90
3866;DHT22;1948;53.250;10.412;2023-07-31T06:55:59;17.50;99.90
3866;DHT22;1948;53.250;10.412;2023-07-31T06:58:26;17.60;99.90
3866;DHT22;1948;53.250;10.412;2023-07-31T07:00:53;17.70;99.90
3866;DHT22;1948;53.250;10.412;2023-07-31T07:03:20;17.80;99.90
3866;DHT22;1948;53.250;10.412;2023-07-31T07:05:47;17.80;99.90
3866;DHT22;1948;53.250;10.412;2023-07-31T07:08:14;17.80;99.90
3866;DHT22;1948;53.250;10.412;2023-07-31T07:10:41;17.90;99.90
3866;DHT22;1948;53.250;10.412;2023-07-31T07:13:08;18.00;99.90
3866;DHT22;1948;53.250;10.412;2023-07-31T07:15:39;18.10;99.90
3866;DHT22;1948;53.250;10.412;2023-07-31T07:18:11;18.10;99.90
3866;DHT22;1948;53.250;10.412;2023-07-31T07:20:38;18.00;99.90
3866;DHT22;1948;53.250;10.412;2023-07-31T07:23:05;17.90;99.90
3866;DHT22;1948;53.250;10.412;2023-07-31T07:25:32;17.90;99.90
3866;DHT22;1948;53.250;10.412;2023-07-31T07:28:04;18.00;99.90
3866;DHT22;1948;53.250;10.412;2023-07-31T07:30:31;18.00;99.90
3866;DHT22;1948;53.250;10.412;2023-07-31T07:33:00;18.00;99.90
3866;DHT22;1948;53.250;10.412;2023-07-31T07:35:27;18.00;99.90
3866;DHT22;1948;53.250;10.412;2023-07-31T07:37:54;18.00;99.90
3866;DHT22;1948;53.250;10.412;2023-07-31T07:40:21;18.00;99.90
3866;DHT22;1948;53.250;10.412;2023-07-31T07:42:50;17.90;99.90
3866;DHT22;1948;53.250;10.412;2023-07-31T07:45:19;17.90;99.90
3866;DHT22;1948;53.250;10.412;2023-07-31T07:47:48;17.90;99.90
3866;DHT22;1948;53.250;10.412;2023-07-31T07:50:18;17.80;99.90
3866;DHT22;1948;53.250;10.412;2023-07-31T07:52:47;17.70;99.90
3866;DHT22;1948;53.250;10.412;2023-07-31T07:55:17;17.90;99.90
3866;DHT22;1948;53.250;10.412;2023-07-31T07:57:44;17.90;99.90
3866;DHT22;1948;53.250;10.412;2023-07-31T08:00:14;18.00;99.90
3866;DHT22;1948;53.250;10.412;2023-07-31T08:02:42;17.90;99.90
3866;DHT22;1948;53.250;10.412;2023-07-31T08:05:09;18.10;99.90
3866;DHT22;1948;53.250;10.412;2023-07-31T08:07:38;18.00;99.90
3866;DHT22;1948;53.250;10.412;2023-07-31T08:10:08;18.10;99.90
3866;DHT22;1948;53.250;10.412;2023-07-31T08:12:35;18.20;99.90
3866;DHT22;1948;53.250;10.412;2023-07-31T08:15:02;18.20;99.90
3866;DHT22;1948;53.250;10.412;2023-07-31T08:17:29;18.10;99.90
3866;DHT22;1948;53.250;10.412;2023-07-31T08:19:59;18.10;99.90
3866;DHT22;1948;53.250;10.412;2023-07-31T08:22:26;18.20;99.90
3866;DHT22;1948;53.250;10.412;2023-07-31T08:24:53;18.20;99.90
3866;DHT22;1948;53.250;10.412;2023-07-31T08:27:22;18.20;99.90
3866;DHT22;1948;53.250;10.412;2023-07-31T08:29:52;18.20;99.90
3866;DHT22;1948;53.250;10.412;2023-07-31T08:32:19;18.10;99.90
3866;DHT22;1948;53.250;10.412;2023-07-31T08:34:46;18.20;99.90
3866;DHT22;1948;53.250;10.412;2023-07-31T08:37:13;18.20;99.90
3866;DHT22;1948;53.250;10.412;2023-07-31T08:39:45;18.30;99.90
3866;DHT22;1948;53.250;10.412;2023-07-31T08:42:12;18.30;99.90
3866;DHT22;1948;53.250;10.412;2023-07-31T08:44:39;18.20;99.90
3866;DHT22;1948;53.250;10.412;2023-07-31T08:47:06;18.20;99.90
3866;DHT22;1948;53.250;10.412;2023-07-31T08:49:35;18.00;99.90
3866;DHT22;1948;53.250;10.412;2023-07-31T08:52:04;18.00;99.90
3866;DHT22;1948;53.250;10.412;2023-07-31T08:54:31;18.00;99.90
3866;DHT22;1948;53.250;10.412;2023-07-31T08:57:00;18.00;99.90
3866;DHT22;1948;53.250;10.412;2023-07-31T08:59:31;17.90;99.90
3866;DHT22;1948;53.250;10.412;2023-07-31T09:02:04;17.90;99.90
3866;DHT22;1948;53.250;10.412;2023-07-31T09:04:33;17.90;99.90
3866;DHT22;1948;53.250;10.412;2023-07-31T09:07:02;18.00;99.90
3866;DHT22;1948;53.250;10.412;2023-07-31T09:09:31;17.90;99.90
3866;DHT22;1948;53.250;10.412;2023-07-31T09:11:58;18.00;99.90
3866;DHT22;1948;53.250;10.412;2023-07-31T09:14:27;18.00;99.90
3866;DHT22;1948;53.250;10.412;2023-07-31T09:16:56;18.00;99.90
3866;DHT22;1948;53.250;10.412;2023-07-31T09:19:35;18.20;99.90
3866;DHT22;1948;53.250;10.412;2023-07-31T09:22:06;18.30;99.90
3866;DHT22;1948;53.250;10.412;2023-07-31T09:24:34;18.30;99.90
3866;DHT22;1948;53.250;10.412;2023-07-31T09:27:02;18.30;99.90
3866;DHT22;1948;53.250;10.412;2023-07-31T09:29:29;18.20;99.90
3866;DHT22;1948;53.250;10.412;2023-07-31T09:31:56;18.30;99.90
3866;DHT22;1948;53.250;10.412;2023-07-31T09:34:37;18.20;99.90
3866;DHT22;1948;53.250;10.412;2023-07-31T09:37:06;18.30;99.90
3866;DHT22;1948;53.250;10.412;2023-07-31T09:39:46;18.30;99.90
3866;DHT22;1948;53.250;10.412;2023-07-31T09:42:13;18.30;99.90
3866;DHT22;1948;53.250;10.412;2023-07-31T09:44:41;18.40;99.90
3866;DHT22;1948;53.250;10.412;2023-07-31T09:47:28;18.40;99.90
3866;DHT22;1948;53.250;10.412;2023-07-31T09:49:57;18.40;99.90
3866;DHT22;1948;53.250;10.412;2023-07-31T09:52:26;18.40;99.90
3866;DHT22;1948;53.250;10.412;2023-07-31T09:54:54;18.60;99.90
3866;DHT22;1948;53.250;10.412;2023-07-31T09:57:22;18.50;99.90
3866;DHT22;1948;53.250;10.412;2023-07-31T09:59:52;18.60;99.90
3866;DHT22;1948;53.250;10.412;2023-07-31T10:02:22;18.80;99.90
3866;DHT22;1948;53.250;10.412;2023-07-31T10:04:52;18.90;99.90
3866;DHT22;1948;53.250;10.412;2023-07-31T10:07:29;19.00;99.90
3866;DHT22;1948;53.250;10.412;2023-07-31T10:09:59;18.90;99.90
3866;DHT22;1948;53.250;10.412;2023-07-31T10:12:33;18.90;99.90
3866;DHT22;1948;53.250;10.412;2023-07-31T10:15:02;18.90;99.90
3866;DHT22;1948;53.250;10.412;2023-07-31T10:17:30;19.00;99.90
3866;DHT22;1948;53.250;10.412;2023-07-31T10:19:58;19.30;99.90
3866;DHT22;1948;53.250;10.412;2023-07-31T10:22:30;19.20;99.90
3866;DHT22;1948;53.250;10.412;2023-07-31T10:24:59;19.10;99.90
3866;DHT22;1948;53.250;10.412;2023-07-31T10:27:29;19.10;99.90
3866;DHT22;1948;53.250;10.412;2023-07-31T10:29:59;19.20;99.90
3866;DHT22;1948;53.250;10.412;2023-07-31T10:32:27;19.40;99.90
3866;DHT22;1948;53.250;10.412;2023-07-31T10:34:55;19.60;99.90
3866;DHT22;1948;53.250;10.412;2023-07-31T10:37:28;19.80;99.90
3866;DHT22;1948;53.250;10.412;2023-07-31T10:40:03;19.80;99.90
3866;DHT22;1948;53.250;10.412;2023-07-31T10:42:34;19.80;99.90
3866;DHT22;1948;53.250;10.412;2023-07-31T10:45:04;19.90;99.90
3866;DHT22;1948;53.250;10.412;2023-07-31T10:50:36;19.60;99.90
3866;DHT22;1948;53.250;10.412;2023-07-31T10:53:04;19.60;99.90
3866;DHT22;1948;53.250;10.412;2023-07-31T10:55:42;19.60;99.90
3866;DHT22;1948;53.250;10.412;2023-07-31T10:58:13;19.50;99.90
3866;DHT22;1948;53.250;10.412;2023-07-31T11:00:42;19.60;99.90
3866;DHT22;1948;53.250;10.412;2023-07-31T11:03:18;19.60;99.90
3866;DHT22;1948;53.250;10.412;2023-07-31T11:08:31;19.70;99.90
3866;DHT22;1948;53.250;10.412;2023-07-31T11:13:48;19.80;99.90
3866;DHT22;1948;53.250;10.412;2023-07-31T11:16:22;19.60;99.90
3866;DHT22;1948;53.250;10.412;2023-07-31T11:18:51;19.30;99.90
3866;DHT22;1948;53.250;10.412;2023-07-31T11:21:24;19.10;99.90
3866;DHT22;1948;53.250;10.412;2023-07-31T11:23:54;19.10;99.90
3866;DHT22;1948;53.250;10.412;2023-07-31T11:26:24;19.30;99.90
3866;DHT22;1948;53.250;10.412;2023-07-31T11:28:52;19.20;99.90
3866;DHT22;1948;53.250;10.412;2023-07-31T11:31:21;19.40;99.90
3866;DHT22;1948;53.250;10.412;2023-07-31T11:33:49;19.40;99.90
3866;DHT22;1948;53.250;10.412;2023-07-31T11:36:22;19.50;99.90
3866;DHT22;1948;53.250;10.412;2023-07-31T11:38:52;19.50;99.90
3866;DHT22;1948;53.250;10.412;2023-07-31T11:41:19;19.60;99.90
3866;DHT22;1948;53.250;10.412;2023-07-31T11:43:46;19.70;99.90
3866;DHT22;1948;53.250;10.412;2023-07-31T11:46:16;19.80;99.90
3866;DHT22;1948;53.250;10.412;2023-07-31T11:48:44;20.00;99.90
3866;DHT22;1948;53.250;10.412;2023-07-31T11:51:13;20.00;99.90
3866;DHT22;1948;53.250;10.412;2023-07-31T11:53:45;19.70;99.90
3866;DHT22;1948;53.250;10.412;2023-07-31T11:56:23;19.60;99.90
3866;DHT22;1948;53.250;10.412;2023-07-31T11:58:53;19.60;99.90
3866;DHT22;1948;53.250;10.412;2023-07-31T12:01:24;19.60;99.90
3866;DHT22;1948;53.250;10.412;2023-07-31T12:03:54;19.50;99.90
3866;DHT22;1948;53.250;10.412;2023-07-31T12:06:37;19.40;99.90
3866;DHT22;1948;53.250;10.412;2023-07-31T12:09:07;19.50;99.90
3866;DHT22;1948;53.250;10.412;2023-07-31T12:11:44;19.50;99.90
3866;DHT22;1948;53.250;10.412;2023-07-31T12:14:24;19.50;99.90
3866;DHT22;1948;53.250;10.412;2023-07-31T12:17:00;19.50;99.90
3866;DHT22;1948;53.250;10.412;2023-07-31T12:19:33;19.60;99.90
3866;DHT22;1948;53.250;10.412;2023-07-31T12:22:14;19.60;99.90
3866;DHT22;1948;53.250;10.412;2023-07-31T12:24:43;19.40;99.90
3866;DHT22;1948;53.250;10.412;2023-07-31T12:27:15;19.40;99.90
3866;DHT22;1948;53.250;10.412;2023-07-31T12:29:44;19.20;99.90
3866;DHT22;1948;53.250;10.412;2023-07-31T12:32:25;19.30;99.90
3866;DHT22;1948;53.250;10.412;2023-07-31T12:34:59;19.40;99.90
3866;DHT22;1948;53.250;10.412;2023-07-31T12:37:30;19.50;99.90
3866;DHT22;1948;53.250;10.412;2023-07-31T12:40:00;19.60;99.90
3866;DHT22;1948;53.250;10.412;2023-07-31T12:42:34;19.50;99.90
3866;DHT22;1948;53.250;10.412;2023-07-31T12:45:04;19.50;99.90
3866;DHT22;1948;53.250;10.412;2023-07-31T12:47:31;19.40;99.90
3866;DHT22;1948;53.250;10.412;2023-07-31T12:50:01;19.30;99.90
3866;DHT22;1948;53.250;10.412;2023-07-31T12:52:30;19.30;99.90
3866;DHT22;1948;53.250;10.412;2023-07-31T12:54:57;19.30;99.90
3866;DHT22;1948;53.250;10.412;2023-07-31T12:57:26;19.20;99.90
3866;DHT22;1948;53.250;10.412;2023-07-31T12:59:53;19.40;99.90
3866;DHT22;1948;53.250;10.412;2023-07-31T13:02:20;19.40;99.90
3866;DHT22;1948;53.250;10.412;2023-07-31T13:04:50;19.30;99.90
3866;DHT22;1948;53.250;10.412;2023-07-31T13:07:21;19.30;99.90
3866;DHT22;1948;53.250;10.412;2023-07-31T13:09:49;19.30;99.90
3866;DHT22;1948;53.250;10.412;2023-07-31T13:12:18;19.10;99.90
3866;DHT22;1948;53.250;10.412;2023-07-31T13:14:45;19.10;99.90
3866;DHT22;1948;53.250;10.412;2023-07-31T13:17:12;19.00;99.90
3866;DHT22;1948;53.250;10.412;2023-07-31T13:19:39;18.90;99.90
3866;DHT22;1948;53.250;10.412;2023-07-31T13:22:08;18.90;99.90
3866;DHT22;1948;53.250;10.412;2023-07-31T13:24:35;18.90;99.90
3866;DHT22;1948;53.250;10.412;2023-07-31T13:27:05;19.00;99.90
3866;DHT22;1948;53.250;10.412;2023-07-31T13:29:35;19.10;99.90
3866;DHT22;1948;53.250;10.412;2023-07-31T13:32:02;19.10;99.90
3866;DHT22;1948;53.250;10.412;2023-07-31T13:34:29;19.00;99.90
3866;DHT22;1948;53.250;10.412;2023-07-31T13:37:01;19.10;99.90
3866;DHT22;1948;53.250;10.412;2023-07-31T13:39:28;19.20;99.90
3866;DHT22;1948;53.250;10.412;2023-07-31T13:41:55;19.10;99.90
3866;DHT22;1948;53.250;10.412;2023-07-31T13:44:22;19.10;99.90
3866;DHT22;1948;53.250;10.412;2023-07-31T13:46:52;19.10;99.90
3866;DHT22;1948;53.250;10.412;2023-07-31T13:49:19;19.10;99.90
3866;DHT22;1948;53.250;10.412;2023-07-31T13:51:49;19.00;99.90
3866;DHT22;1948;53.250;10.412;2023-07-31T13:54:16;19.00;99.90
3866;DHT22;1948;53.250;10.412;2023-07-31T13:56:45;19.00;99.90
3866;DHT22;1948;53.250;10.412;2023-07-31T13:59:15;19.10;99.90
3866;DHT22;1948;53.250;10.412;2023-07-31T14:01:47;19.20;99.90
3866;DHT22;1948;53.250;10.412;2023-07-31T14:04:17;19.20;99.90
3866;DHT22;1948;53.250;10.412;2023-07-31T14:06:47;19.30;99.90
3866;DHT22;1948;53.250;10.412;2023-07-31T14:09:14;19.30;99.90
3866;DHT22;1948;53.250;10.412;2023-07-31T14:11:41;19.20;99.90
3866;DHT22;1948;53.250;10.412;2023-07-31T14:14:11;19.20;99.90
3866;DHT22;1948;53.250;10.412;2023-07-31T14:16:39;19.10;99.90
3866;DHT22;1948;53.250;10.412;2023-07-31T14:19:08;19.00;99.90
3866;DHT22;1948;53.250;10.412;2023-07-31T14:21:36;19.00;99.90
3866;DHT22;1948;53.250;10.412;2023-07-31T14:24:03;18.90;99.90
3866;DHT22;1948;53.250;10.412;2023-07-31T14:26:30;18.90;99.90
3866;DHT22;1948;53.250;10.412;2023-07-31T14:28:57;18.80;99.90
3866;DHT22;1948;53.250;10.412;2023-07-31T14:31:26;18.90;99.90
3866;DHT22;1948;53.250;10.412;2023-07-31T14:33:56;19.00;99.90
3866;DHT22;1948;53.250;10.412;2023-07-31T14:36:24;18.90;99.90
3866;DHT22;1948;53.250;10.412;2023-07-31T14:38:51;19.10;99.90
3866;DHT22;1948;53.250;10.412;2023-07-31T14:41:20;19.20;99.90
3866;DHT22;1948;53.250;10.412;2023-07-31T14:43:50;19.30;99.90
3866;DHT22;1948;53.250;10.412;2023-07-31T14:46:19;19.20;99.90
3866;DHT22;1948;53.250;10.412;2023-07-31T14:48:46;19.20;99.90
3866;DHT22;1948;53.250;10.412;2023-07-31T14:51:13;19.20;99.90
3866;DHT22;1948;53.250;10.412;2023-07-31T14:53:41;19.30;99.90
3866;DHT22;1948;53.250;10.412;2023-07-31T14:56:08;19.30;99.90
3866;DHT22;1948;53.250;10.412;2023-07-31T14:58:34;19.30;99.90
3866;DHT22;1948;53.250;10.412;2023-07-31T15:01:02;19.30;99.90
3866;DHT22;1948;53.250;10.412;2023-07-31T15:03:31;19.20;99.90
3866;DHT22;1948;53.250;10.412;2023-07-31T15:05:58;19.10;99.90
3866;DHT22;1948;53.250;10.412;2023-07-31T15:08:30;19.10;99.90
3866;DHT22;1948;53.250;10.412;2023-07-31T15:10:56;19.10;99.90
3866;DHT22;1948;53.250;10.412;2023-07-31T15:13:28;19.10;99.90
3866;DHT22;1948;53.250;10.412;2023-07-31T15:15:58;19.10;99.90
3866;DHT22;1948;53.250;10.412;2023-07-31T15:18:26;19.10;99.90
3866;DHT22;1948;53.250;10.412;2023-07-31T15:20:53;19.10;99.90
3866;DHT22;1948;53.250;10.412;2023-07-31T15:23:23;19.00;99.90
3866;DHT22;1948;53.250;10.412;2023-07-31T15:25:50;19.10;99.90
3866;DHT22;1948;53.250;10.412;2023-07-31T15:28:18;19.10;99.90
3866;DHT22;1948;53.250;10.412;2023-07-31T15:30:45;19.10;99.90
3866;DHT22;1948;53.250;10.412;2023-07-31T15:33:15;19.20;99.90
3866;DHT22;1948;53.250;10.412;2023-07-31T15:35:42;19.10;99.90
3866;DHT22;1948;53.250;10.412;2023-07-31T15:38:09;19.20;99.90
3866;DHT22;1948;53.250;10.412;2023-07-31T15:40:38;19.10;99.90
3866;DHT22;1948;53.250;10.412;2023-07-31T15:43:05;19.10;99.90
3866;DHT22;1948;53.250;10.412;2023-07-31T15:45:32;19.10;99.90
3866;DHT22;1948;53.250;10.412;2023-07-31T15:48:01;19.10;99.90
3866;DHT22;1948;53.250;10.412;2023-07-31T15:50:28;19.20;99.90
3866;DHT22;1948;53.250;10.412;2023-07-31T15:52:57;19.20;99.90
3866;DHT22;1948;53.250;10.412;2023-07-31T15:55:27;19.20;99.90
3866;DHT22;1948;53.250;10.412;2023-07-31T15:57:54;19.40;99.90
3866;DHT22;1948;53.250;10.412;2023-07-31T16:00:21;19.30;99.90
3866;DHT22;1948;53.250;10.412;2023-07-31T16:02:48;19.30;99.90
3866;DHT22;1948;53.250;10.412;2023-07-31T16:05:16;19.30;99.90
3866;DHT22;1948;53.250;10.412;2023-07-31T16:07:46;19.30;99.90
3866;DHT22;1948;53.250;10.412;2023-07-31T16:10:13;19.30;99.90